Long Lake, NY

1:05 PM EST on December 18, 2014 (GMT -0500)
Bennett Memorial | Change Station
CLOSE
Current Station
Airport
Location: Glens Falls,
Elevation: 328 ft
Nearby Weather Stations

Elev 328 ft 43.34 °N, 73.61 °W | Updated 12 minutes ago

Overcast
Overcast
39 °F
Feels Like 36 °F
N
5
Wind Variable Wind from West

Today
High -- | Low -- °F
--% Chance of Precip.
Yesterday
High -- | Low -- °F
Precip. -- in
7:27 AM 4:21 PM
Waning Crescent, 13% visible
Pressure 29.88 in
Visibility 10.0 miles
Clouds Overcast 3700 ft
Windchill 36 °F
Dew Point 25 °F
Humidity 57%
Rainfall 0.00 in
Snow Depth Not available.
UV 1 out of 12
Pollen .10 out of 12
Air Quality Not available.
Flu Activity Not available.
METAR KGFL 181753Z AUTO 27004KT 10SM OVC037 04/M04 A2986 RMK AO2 SLP117 T00391039 10039 20000 58008

More Conditions Fewer Conditions

Pressure 29.88 in
Visibility 10.0 miles
Clouds Overcast 3700 ft
Windchill 36 °F
Dew Point 25 °F
Humidity 57%
Rainfall 0.00 in
Snow Depth Not available.
UV 1 out of 12
Pollen .10 out of 12
Air Quality Not available.
Flu Activity Not available.
METAR KGFL 181753Z AUTO 27004KT 10SM OVC037 04/M04 A2986 RMK AO2 SLP117 T00391039 10039 20000 58008

More Conditions Fewer Conditions

10-Day Weather Forecast

Almanac

Astronomy

Dec. 18, 2014 Rise Set
Actual Time
Civil Twilight
Nautical Twilight
Astronomical Twilight
Moon
Length of Visible Light
Length of Day
Tomorrow will be .
, % of the Moon is Illuminated

Today's Extremes

State Highs State Lows

Community

WunderPhotos

Upload Photos

1,778,969 photos uploaded!

WunderBlogs® & News

Nearby

Air Quality

  Air Quality AQ Index Pollutant
Not available.

Snow Depth

Station Depth Elevation

Earthquake Activity

City Distance Mag. Time & Date
Minimum magnitude displayed is 2.5.

Coastal Water Temperatures

Place Temperature

Nearby Weather Stations